Aeroporto :







RITROVATECI SU...

 
LOGIN :

Iscrizione | Disclaimer

   EN    FR    IT 

 









Sommario :    VFR   VFR Marginale   IFR   IFR Intensivo   IFR Molto Intensivo
Visibilità : 
Base nubi : 
>= 8 km
>= 3000ft
5 / 8 km
1000 / 3000 ft
1500m / 5 km
500 / 1000 ft
800 / 1500m
200 / 500 ft
< 800m
< 200 ft
Simboli :   Temporali  Nebbia  Neve Forte  Precipitazioni Forti  Vento > 20 kt






- Altitudine del aeroporto : 84 ft
- Codice IATA : YJT


CYJT - Stephenville

ULTIMO METAR :
  • 040300Z 07016KT 15SM FEW027 BKN070 M01/M06 A3018 RMK SC2AC3 SLP224

METARs OBSOLETI :
  • 040200Z 08016G23KT 15SM SCT026 BKN062 M01/M06 A3019 RMK SC3SC3 SLP226
  • 040100Z 05013G21KT 15SM SCT023 BKN060 M01/M05 A3020 RMK SC3SC3 SLP230

TAF AMD TAF CYJT
Valido dal 04 a 00 ore il 05 a 00 ore UTC


032340Z 0400/0424 07015G25KT P6SM BKN020 BKN060
TEMPO 0400/0418 SCT020 BKN060
BECMG 0401/0403 07012KT
FM041800 28007KT P6SM BKN025 RMK NXT FCST BY 040600Z



MetMap, La meteo Aeronautica in un colpo d'occhio ! - Copyright ORBIFLY Dicembre 2007 - Disclaimer

ORBIFLY MET'MAP TEAM :

Programmazione e sviluppo : Alexandra Zaïnal
Concezione : Baudouin d'Aumeries
Aiuto per la programmazione : Marc-Olivier Méhu
Supporto tecnico e logistico : Manuel Goepfert
Aiuto per la traduzione : Arnaldo La Scala

Contatto : metmap@orbifly.com




FONTI E CREDITI :

   NOAA